Kezdőlap
METAR-TAF:

METAR-TAF

Repülőterek :

Szingapúr, Szingapúr

földrajzi szélesség: 01-22N, földrajzi hosszúság: 103-55E, magasság: 18 m

Jelenlegi meteorológiai megfigyelések

A jelentés 56 perccel ezelõtt készült, 02:00 UTC
Déli szél 7 kt
Hőmérséklet 25°C
Páratartalom 89%
Légköri nyomás 1013 hPa
Látótávolság: 6000 m
Kevés felhő 1200 lábon
Borult 15000 lábon
esõ,

METAR: WSAP 220200Z 19007KT 6000 RA FEW012 OVC150 25/23 Q1013

Idő: 10:56 (02:56 UTC)

Előrejelzés

A jelentés 3 órával és 56 perccel ezelõtt készült, 23:00 UTC
Az előrejelzés 22-én 00 óra UTC és 23-én 06 óra UTC között érvényes
Déli szél 12 kt
Látótávolság 10 km, vagy több
Kevés felhő 1500 lábon
Szórványos felhőzet 2000 lábon

TAF: WSAP 212300Z 2200/2306 17012KT 9999 FEW015 SCT020

Meteorológiai megfigyelések és előrejelzések több, mint 4000 repülőtéren (METAR és TAF jelentéseket).

A térképen piros és sárga pontok jelzik az elérhető meteorológiai állomásokat.

Mozgassa az egeret a pont fölött, hogy megjelenjen az állomás neve.

Azután kattintson az időjárási megfigyelések és előrejelzések megtekintéséhez.

A térkép megváltoztatása: kattintson a fekete keresztel jelölt zöld gombra ráközelítéshez, a vonallal jelölt zöld gombra távolításhoz, vagy a zöld nyilakra a szomszédos térképek eléréséhez.


METAR-TAF: